Time;durP1;ratioP1;P1;durP2;ratioP2;P2;SDS_P1;SDS_P2;PMS_P1;PMS_P2;Temp;Humidity;BMP_temperature;BMP_pressure;BME280_temperature;BME280_humidity;BME280_pressure;Samples;Min_cycle;Max_cycle;Signal;HPM_P1;HPM_P2
2023/09/04 00:01:25;;;;;;;2.60;2.40;;;;;;;;;;5071546;28;20199;-58
2023/09/04 00:03:52;;;;;;;2.77;2.57;;;;;;;;;;5071769;28;20192;-58
2023/09/04 00:06:18;;;;;;;2.67;2.47;;;;;;;;;;5071498;28;20325;-58
2023/09/04 00:08:44;;;;;;;3.27;2.50;;;;;;;;;;5071511;28;20720;-59
2023/09/04 00:11:10;;;;;;;2.73;2.50;;;;;;;;;;5071578;28;20206;-58
2023/09/04 00:13:36;;;;;;;3.53;2.47;;;;;;;;;;5071613;28;20219;-59
2023/09/04 00:16:02;;;;;;;2.70;2.50;;;;;;;;;;5071408;28;20203;-58
2023/09/04 00:18:30;;;;;;;2.77;2.57;;;;;;;;;;5069401;28;20330;-58
2023/09/04 00:20:57;;;;;;;2.50;2.30;;;;;;;;;;5069838;28;20248;-58
2023/09/04 00:23:23;;;;;;;3.47;2.50;;;;;;;;;;5071528;28;20278;-58
2023/09/04 00:25:49;;;;;;;2.93;2.60;;;;;;;;;;5071478;28;20556;-65
2023/09/04 00:28:18;;;;;;;3.67;3.37;;;;;;;;;;5071262;28;20219;-60
2023/09/04 00:30:44;;;;;;;3.60;2.90;;;;;;;;;;5071210;28;20374;-60
2023/09/04 00:33:10;;;;;;;3.40;3.07;;;;;;;;;;5071310;28;20245;-60
2023/09/04 00:35:36;;;;;;;3.00;2.33;;;;;;;;;;5071436;28;20287;-60
2023/09/04 00:38:03;;;;;;;3.30;2.77;;;;;;;;;;5071102;28;20326;-60
2023/09/04 00:40:29;;;;;;;3.23;2.53;;;;;;;;;;5071140;28;20223;-60
2023/09/04 00:42:55;;;;;;;3.17;2.77;;;;;;;;;;5071454;28;20580;-60
2023/09/04 00:45:22;;;;;;;3.13;2.70;;;;;;;;;;5071245;28;20294;-60
2023/09/04 00:47:48;;;;;;;2.83;2.63;;;;;;;;;;5071271;28;20199;-60
2023/09/04 00:50:16;;;;;;;2.37;2.20;;;;;;;;;;5071241;28;20195;-60
2023/09/04 00:52:42;;;;;;;2.90;2.70;;;;;;;;;;5071380;28;20282;-60
2023/09/04 00:55:10;;;;;;;4.50;2.73;;;;;;;;;;5071336;28;20646;-60
2023/09/04 00:57:36;;;;;;;2.77;2.57;;;;;;;;;;5071206;28;20199;-60
2023/09/04 01:00:05;;;;;;;3.00;2.80;;;;;;;;;;5070991;28;20233;-60
2023/09/04 01:02:31;;;;;;;2.87;2.57;;;;;;;;;;5071162;28;20286;-61
2023/09/04 01:04:57;;;;;;;3.57;2.47;;;;;;;;;;5071221;28;20280;-60
2023/09/04 01:07:23;;;;;;;3.10;2.90;;;;;;;;;;5071085;28;20210;-61
2023/09/04 01:09:49;;;;;;;3.10;2.80;;;;;;;;;;5071072;28;20674;-61
2023/09/04 01:12:19;;;;;;;3.67;2.57;;;;;;;;;;5070783;28;20661;-60
2023/09/04 01:14:46;;;;;;;6.73;2.97;;;;;;;;;;5070994;28;20261;-61
2023/09/04 01:17:13;;;;;;;2.70;2.50;;;;;;;;;;5070959;28;20202;-61
2023/09/04 01:19:39;;;;;;;3.23;2.50;;;;;;;;;;5071085;28;20235;-63
2023/09/04 01:22:07;;;;;;;2.60;2.40;;;;;;;;;;5070907;28;20200;-61
2023/09/04 01:24:33;;;;;;;3.13;2.20;;;;;;;;;;5070879;28;20196;-61
2023/09/04 01:27:03;;;;;;;2.97;2.70;;;;;;;;;;5070930;28;20207;-61
2023/09/04 01:29:31;;;;;;;2.67;2.47;;;;;;;;;;5070778;28;20196;-61
2023/09/04 01:32:00;;;;;;;2.30;2.10;;;;;;;;;;5070992;28;20196;-61
2023/09/04 01:34:28;;;;;;;3.00;2.20;;;;;;;;;;5070890;28;20569;-61
2023/09/04 01:36:57;;;;;;;2.50;2.30;;;;;;;;;;5071053;28;20632;-61
2023/09/04 01:39:25;;;;;;;2.87;2.37;;;;;;;;;;5070654;28;20246;-61
2023/09/04 01:41:51;;;;;;;2.40;2.20;;;;;;;;;;5070877;28;20283;-61
2023/09/04 01:44:17;;;;;;;2.50;2.30;;;;;;;;;;5070564;28;20188;-61
2023/09/04 01:46:43;;;;;;;2.57;2.37;;;;;;;;;;5073453;28;20201;-61
2023/09/04 01:49:09;;;;;;;2.47;2.27;;;;;;;;;;5074452;28;20207;-61
2023/09/04 01:51:35;;;;;;;2.40;2.20;;;;;;;;;;5074369;28;20196;-61
2023/09/04 01:54:01;;;;;;;4.47;2.60;;;;;;;;;;5074137;28;20662;-61
2023/09/04 01:56:28;;;;;;;2.40;2.20;;;;;;;;;;5074111;28;20191;-61
2023/09/04 01:58:54;;;;;;;2.33;2.13;;;;;;;;;;5074156;28;20619;-61
2023/09/04 02:01:20;;;;;;;2.80;2.60;;;;;;;;;;5073906;28;20194;-61
2023/09/04 02:03:54;;;;;;;2.60;2.40;;;;;;;;;;5074119;28;20202;-61
2023/09/04 02:06:20;;;;;;;2.43;2.23;;;;;;;;;;5073919;28;20661;-61
2023/09/04 02:08:46;;;;;;;3.33;2.30;;;;;;;;;;5073859;28;20275;-61
2023/09/04 02:11:12;;;;;;;2.37;2.10;;;;;;;;;;5073836;28;20195;-61
2023/09/04 02:13:39;;;;;;;2.40;2.20;;;;;;;;;;5074063;28;20200;-61
2023/09/04 02:16:05;;;;;;;2.40;2.20;;;;;;;;;;5073668;28;20230;-61
2023/09/04 02:18:31;;;;;;;2.17;1.97;;;;;;;;;;5073809;28;20223;-61
2023/09/04 02:20:59;;;;;;;2.40;2.20;;;;;;;;;;5073712;28;20741;-62
2023/09/04 02:23:25;;;;;;;3.87;2.33;;;;;;;;;;5072077;28;20226;-62
2023/09/04 02:25:52;;;;;;;2.63;1.97;;;;;;;;;;5073663;28;20202;-61
2023/09/04 02:28:18;;;;;;;2.90;2.40;;;;;;;;;;5071726;28;20220;-62
2023/09/04 02:30:45;;;;;;;2.90;2.43;;;;;;;;;;5073557;28;20199;-62
2023/09/04 02:33:11;;;;;;;2.60;2.20;;;;;;;;;;5073516;28;20211;-62
2023/09/04 02:35:37;;;;;;;2.60;2.40;;;;;;;;;;5073587;28;20206;-62
2023/09/04 02:38:04;;;;;;;2.10;1.90;;;;;;;;;;5073285;28;20239;-62
2023/09/04 02:40:30;;;;;;;2.90;2.50;;;;;;;;;;5073194;28;20254;-61
2023/09/04 02:42:56;;;;;;;2.53;2.27;;;;;;;;;;5073375;28;20630;-62
2023/09/04 02:45:22;;;;;;;4.97;2.40;;;;;;;;;;5073124;28;20650;-62
2023/09/04 02:47:49;;;;;;;2.00;1.90;;;;;;;;;;5073167;28;20709;-62
2023/09/04 02:50:15;;;;;;;2.53;2.30;;;;;;;;;;5073192;28;20704;-62
2023/09/04 02:52:41;;;;;;;2.40;2.20;;;;;;;;;;5073051;28;20662;-62
2023/09/04 02:55:08;;;;;;;2.60;2.40;;;;;;;;;;5073155;28;20237;-62
2023/09/04 02:57:34;;;;;;;2.57;2.37;;;;;;;;;;5073224;28;20249;-62
2023/09/04 03:00:01;;;;;;;2.63;2.43;;;;;;;;;;5072767;28;20219;-61
2023/09/04 03:02:27;;;;;;;2.87;2.20;;;;;;;;;;5072894;28;20579;-61
2023/09/04 03:04:55;;;;;;;2.87;2.63;;;;;;;;;;5073211;28;20238;-61
2023/09/04 03:07:22;;;;;;;3.40;2.17;;;;;;;;;;5072785;28;20256;-61
2023/09/04 03:09:48;;;;;;;2.90;2.40;;;;;;;;;;5072842;28;20187;-61
2023/09/04 03:12:14;;;;;;;3.07;2.77;;;;;;;;;;5072578;28;20196;-61
2023/09/04 03:14:40;;;;;;;2.60;2.37;;;;;;;;;;5072874;28;20195;-61
2023/09/04 03:17:06;;;;;;;3.23;2.70;;;;;;;;;;5072650;28;20295;-61
2023/09/04 03:19:32;;;;;;;2.90;2.70;;;;;;;;;;5072639;28;20277;-61
2023/09/04 03:21:59;;;;;;;2.50;2.30;;;;;;;;;;5072572;28;20203;-61
2023/09/04 03:24:26;;;;;;;3.93;2.70;;;;;;;;;;5072510;28;20252;-62
2023/09/04 03:26:52;;;;;;;2.77;2.53;;;;;;;;;;5072553;28;20577;-61
2023/09/04 03:29:18;;;;;;;3.80;2.60;;;;;;;;;;5072263;28;20195;-61
2023/09/04 03:31:44;;;;;;;4.23;2.90;;;;;;;;;;5072264;28;20203;-62
2023/09/04 03:34:10;;;;;;;3.10;2.80;;;;;;;;;;5072370;28;20199;-61
2023/09/04 03:36:36;;;;;;;2.57;2.37;;;;;;;;;;5072414;28;20279;-61
2023/09/04 03:39:06;;;;;;;3.00;2.70;;;;;;;;;;5070187;28;20675;-61
2023/09/04 03:41:32;;;;;;;2.83;2.63;;;;;;;;;;5070493;28;20203;-61
2023/09/04 03:43:58;;;;;;;3.23;2.63;;;;;;;;;;5072250;28;20298;-61
2023/09/04 03:46:26;;;;;;;3.27;2.77;;;;;;;;;;5072120;28;20286;-61
2023/09/04 03:48:52;;;;;;;2.97;2.77;;;;;;;;;;5072441;28;20435;-61
2023/09/04 03:51:18;;;;;;;2.53;2.33;;;;;;;;;;5071854;28;20196;-61
2023/09/04 03:53:44;;;;;;;2.70;2.50;;;;;;;;;;5071856;28;20203;-61
2023/09/04 03:56:11;;;;;;;3.30;2.40;;;;;;;;;;5071947;28;20207;-61
2023/09/04 03:58:37;;;;;;;3.23;2.93;;;;;;;;;;5071959;28;20278;-61
2023/09/04 04:01:06;;;;;;;3.80;3.03;;;;;;;;;;5071890;28;20219;-61
2023/09/04 04:03:32;;;;;;;3.30;3.00;;;;;;;;;;5071747;28;20222;-61
2023/09/04 04:05:58;;;;;;;3.10;2.90;;;;;;;;;;5071684;28;20269;-61
2023/09/04 04:08:24;;;;;;;3.87;2.70;;;;;;;;;;5071422;28;20290;-61
2023/09/04 04:10:50;;;;;;;3.30;3.00;;;;;;;;;;5071806;28;20191;-61
2023/09/04 04:13:18;;;;;;;3.20;2.90;;;;;;;;;;5071522;28;20654;-61
2023/09/04 04:15:45;;;;;;;3.90;2.93;;;;;;;;;;5071731;28;20282;-61
2023/09/04 04:18:11;;;;;;;2.90;2.60;;;;;;;;;;5071743;28;20570;-61
2023/09/04 04:20:38;;;;;;;4.20;3.00;;;;;;;;;;5071545;28;20318;-61
2023/09/04 04:23:04;;;;;;;3.50;2.57;;;;;;;;;;5071674;28;20227;-61
2023/09/04 04:25:30;;;;;;;4.87;3.10;;;;;;;;;;5071409;28;20203;-61
2023/09/04 04:27:56;;;;;;;3.67;2.67;;;;;;;;;;5071658;28;20210;-61
2023/09/04 04:30:23;;;;;;;2.83;2.63;;;;;;;;;;5071402;28;20187;-61
2023/09/04 04:32:50;;;;;;;4.93;2.90;;;;;;;;;;5069936;28;20245;-61
2023/09/04 04:35:17;;;;;;;3.60;3.30;;;;;;;;;;5071295;28;20283;-62
2023/09/04 04:37:43;;;;;;;3.20;3.00;;;;;;;;;;5071100;28;20326;-61
2023/09/04 04:40:09;;;;;;;3.57;3.10;;;;;;;;;;5070596;28;20315;-61
2023/09/04 04:42:35;;;;;;;7.33;3.17;;;;;;;;;;5070883;28;20757;-61
2023/09/04 04:45:02;;;;;;;3.67;3.17;;;;;;;;;;5071087;28;20514;-61
2023/09/04 04:47:29;;;;;;;3.27;2.73;;;;;;;;;;5071017;28;20199;-61
2023/09/04 04:49:55;;;;;;;3.83;2.90;;;;;;;;;;5071298;28;20219;-61
2023/09/04 04:52:21;;;;;;;3.37;2.80;;;;;;;;;;5071219;28;20219;-61
2023/09/04 04:54:47;;;;;;;3.00;2.77;;;;;;;;;;5071074;28;20290;-63
2023/09/04 04:57:13;;;;;;;3.53;3.00;;;;;;;;;;5069274;28;20191;-63
2023/09/04 04:59:39;;;;;;;3.97;2.93;;;;;;;;;;5055296;28;20212;-62
2023/09/04 05:02:05;;;;;;;2.70;2.50;;;;;;;;;;5051180;28;20214;-62
2023/09/04 05:04:35;;;;;;;3.40;3.10;;;;;;;;;;5049270;28;20747;-61
2023/09/04 05:07:02;;;;;;;5.53;3.17;;;;;;;;;;5051247;28;20201;-62
2023/09/04 05:09:28;;;;;;;3.70;2.70;;;;;;;;;;5050844;28;20202;-62
2023/09/04 05:11:54;;;;;;;3.63;2.83;;;;;;;;;;5051132;28;20282;-63
2023/09/04 05:14:20;;;;;;;3.23;3.00;;;;;;;;;;5050486;28;20290;-63
2023/09/04 05:16:46;;;;;;;3.47;2.87;;;;;;;;;;5050794;28;20445;-61
2023/09/04 05:19:12;;;;;;;3.47;3.00;;;;;;;;;;5050814;28;20223;-64
2023/09/04 05:21:39;;;;;;;3.10;2.80;;;;;;;;;;5053731;28;20196;-63
2023/09/04 05:24:05;;;;;;;4.60;3.20;;;;;;;;;;5054642;28;20238;-63
2023/09/04 05:26:31;;;;;;;2.70;2.50;;;;;;;;;;5054510;28;20595;-62
2023/09/04 05:28:57;;;;;;;2.73;2.33;;;;;;;;;;5054607;28;20200;-62
2023/09/04 05:31:23;;;;;;;3.57;2.67;;;;;;;;;;5054700;28;20200;-63
2023/09/04 05:33:50;;;;;;;3.20;2.70;;;;;;;;;;5054498;28;20196;-63
2023/09/04 05:36:16;;;;;;;3.10;2.80;;;;;;;;;;5054330;28;20274;-62
2023/09/04 05:38:43;;;;;;;3.70;2.70;;;;;;;;;;5054210;28;20242;-63
2023/09/04 05:41:09;;;;;;;3.27;2.97;;;;;;;;;;5054411;28;20197;-62
2023/09/04 05:43:35;;;;;;;3.20;2.90;;;;;;;;;;5054138;28;20220;-62
2023/09/04 05:46:01;;;;;;;3.27;2.83;;;;;;;;;;5054467;28;20208;-62
2023/09/04 05:48:28;;;;;;;3.20;2.90;;;;;;;;;;5054100;28;20204;-63
2023/09/04 05:50:54;;;;;;;3.27;2.97;;;;;;;;;;5054435;28;20227;-62
2023/09/04 05:53:20;;;;;;;4.87;3.23;;;;;;;;;;5054158;28;20228;-63
2023/09/04 05:56:01;;;;;;;3.40;2.87;;;;;;;;;;5054409;28;20196;-62
2023/09/04 05:58:28;;;;;;;3.67;3.03;;;;;;;;;;5054097;28;20192;-63
2023/09/04 06:00:55;;;;;;;3.30;3.10;;;;;;;;;;5054316;28;20728;-63
2023/09/04 06:03:20;;;;;;;3.60;3.30;;;;;;;;;;5054015;28;20707;-63
2023/09/04 06:05:48;;;;;;;3.20;2.90;;;;;;;;;;5054156;28;20204;-63
2023/09/04 06:08:14;;;;;;;4.03;3.63;;;;;;;;;;5053881;28;20551;-63
2023/09/04 06:10:40;;;;;;;3.90;3.60;;;;;;;;;;5050622;28;20192;-64
2023/09/04 06:13:06;;;;;;;4.10;3.70;;;;;;;;;;5054070;28;20192;-64
2023/09/04 06:15:33;;;;;;;4.40;4.00;;;;;;;;;;5056326;28;20730;-63
2023/09/04 06:17:59;;;;;;;3.53;3.27;;;;;;;;;;5061540;28;20188;-63
2023/09/04 06:20:26;;;;;;;4.07;3.20;;;;;;;;;;5053760;28;20259;-64
2023/09/04 06:22:52;;;;;;;6.03;3.30;;;;;;;;;;5053861;28;20196;-64
2023/09/04 06:25:18;;;;;;;3.97;3.57;;;;;;;;;;5053615;28;20200;-64
2023/09/04 06:27:44;;;;;;;3.67;3.37;;;;;;;;;;5053561;28;20254;-64
2023/09/04 06:30:10;;;;;;;3.63;3.33;;;;;;;;;;5053572;28;20204;-64
2023/09/04 06:32:37;;;;;;;4.10;3.63;;;;;;;;;;5053301;28;20276;-64
2023/09/04 06:35:04;;;;;;;4.53;3.60;;;;;;;;;;5053412;28;20204;-64
2023/09/04 06:37:30;;;;;;;3.57;3.20;;;;;;;;;;5054632;28;20240;-64
2023/09/04 06:39:56;;;;;;;3.43;3.13;;;;;;;;;;5056012;28;20224;-65
2023/09/04 06:42:22;;;;;;;4.23;2.93;;;;;;;;;;5053255;28;20224;-64
2023/09/04 06:44:48;;;;;;;3.23;2.93;;;;;;;;;;5053286;28;20291;-64
2023/09/04 06:47:14;;;;;;;4.37;3.23;;;;;;;;;;5053201;28;20300;-64
2023/09/04 06:49:41;;;;;;;4.10;3.53;;;;;;;;;;5053189;28;20196;-64
2023/09/04 06:52:07;;;;;;;4.10;3.23;;;;;;;;;;5050154;28;20231;-65
2023/09/04 06:54:33;;;;;;;3.20;2.90;;;;;;;;;;5053105;28;20199;-64
2023/09/04 06:56:59;;;;;;;3.33;2.93;;;;;;;;;;5053253;28;20192;-65
2023/09/04 06:59:26;;;;;;;3.30;3.00;;;;;;;;;;5052837;28;20565;-63
2023/09/04 07:01:52;;;;;;;3.47;3.00;;;;;;;;;;5052934;28;20194;-65
2023/09/04 07:04:18;;;;;;;4.30;3.30;;;;;;;;;;5052890;28;20260;-65
2023/09/04 07:06:45;;;;;;;6.10;3.47;;;;;;;;;;5052910;28;20441;-65
2023/09/04 07:09:11;;;;;;;6.00;3.47;;;;;;;;;;5052979;28;20255;-65
2023/09/04 07:11:37;;;;;;;4.77;4.10;;;;;;;;;;5052943;28;20207;-65
2023/09/04 07:14:03;;;;;;;4.17;3.77;;;;;;;;;;5053078;28;20206;-65
2023/09/04 07:16:37;;;;;;;7.80;3.67;;;;;;;;;;5052607;28;20203;-65
2023/09/04 07:19:03;;;;;;;4.47;3.07;;;;;;;;;;5052446;28;20226;-65
2023/09/04 07:21:29;;;;;;;3.73;3.40;;;;;;;;;;5052576;28;20200;-65
2023/09/04 07:23:56;;;;;;;3.53;2.90;;;;;;;;;;5052732;28;20249;-65
2023/09/04 07:26:22;;;;;;;5.87;2.97;;;;;;;;;;5052475;28;20199;-65
2023/09/04 07:28:48;;;;;;;5.33;2.87;;;;;;;;;;5052388;28;20226;-67
2023/09/04 07:31:17;;;;;;;3.73;2.50;;;;;;;;;;5052206;28;20213;-71
2023/09/04 07:33:44;;;;;;;3.43;2.47;;;;;;;;;;5052228;28;20291;-69
2023/09/04 07:36:10;;;;;;;2.80;2.60;;;;;;;;;;5052350;28;20204;-69
2023/09/04 07:38:36;;;;;;;2.83;2.50;;;;;;;;;;5051972;28;20257;-72
2023/09/04 07:41:04;;;;;;;3.30;2.87;;;;;;;;;;5052133;28;20235;-70
2023/09/04 07:43:30;;;;;;;3.30;2.17;;;;;;;;;;5051395;28;20223;-60
2023/09/04 07:45:56;;;;;;;2.60;2.27;;;;;;;;;;5052228;28;20204;-68
2023/09/04 07:48:22;;;;;;;3.00;2.67;;;;;;;;;;5051953;28;20651;-66
2023/09/04 07:50:57;;;;;;;2.67;2.43;;;;;;;;;;5052051;28;20682;-66
2023/09/04 07:53:23;;;;;;;2.53;2.07;;;;;;;;;;5051974;28;20572;-69
2023/09/04 07:55:51;;;;;;;3.07;2.30;;;;;;;;;;5052075;28;20607;-59
2023/09/04 07:58:18;;;;;;;2.20;2.00;;;;;;;;;;5054897;28;20513;-59
2023/09/04 08:00:45;;;;;;;2.97;2.53;;;;;;;;;;5071674;28;20281;-58
2023/09/04 08:03:11;;;;;;;3.80;2.07;;;;;;;;;;5071867;28;20195;-58
2023/09/04 08:05:37;;;;;;;3.03;2.10;;;;;;;;;;5071673;28;20199;-58
2023/09/04 08:08:08;;;;;;;3.67;1.90;;;;;;;;;;5071695;28;20196;-58
2023/09/04 08:10:34;;;;;;;2.53;2.10;;;;;;;;;;5071584;28;20273;-58
2023/09/04 08:13:00;;;;;;;3.43;2.37;;;;;;;;;;5071829;28;20281;-58
2023/09/04 08:15:27;;;;;;;2.17;1.67;;;;;;;;;;5069655;28;20344;-58
2023/09/04 08:17:53;;;;;;;2.83;1.90;;;;;;;;;;5071639;28;20330;-58
2023/09/04 08:20:19;;;;;;;3.77;1.80;;;;;;;;;;5071160;28;20764;-59
2023/09/04 08:22:46;;;;;;;3.90;1.93;;;;;;;;;;5071149;28;20193;-59
2023/09/04 08:25:13;;;;;;;3.20;1.90;;;;;;;;;;5071124;28;20669;-60
2023/09/04 08:27:39;;;;;;;3.40;2.10;;;;;;;;;;5071308;28;20199;-58
2023/09/04 08:30:05;;;;;;;3.37;2.10;;;;;;;;;;5071172;28;20234;-58
2023/09/04 08:32:33;;;;;;;2.00;1.80;;;;;;;;;;5071110;28;20200;-58
2023/09/04 08:34:59;;;;;;;2.40;1.70;;;;;;;;;;5071177;28;20295;-58
2023/09/04 08:37:25;;;;;;;1.87;1.50;;;;;;;;;;5071285;28;20287;-59
2023/09/04 08:39:51;;;;;;;2.63;2.00;;;;;;;;;;5071020;28;20318;-58
2023/09/04 08:42:17;;;;;;;2.63;1.90;;;;;;;;;;5071155;28;20222;-58
2023/09/04 08:44:43;;;;;;;2.30;2.10;;;;;;;;;;5071099;28;20212;-58
2023/09/04 08:47:10;;;;;;;2.43;1.80;;;;;;;;;;5071143;28;20204;-58
2023/09/04 08:49:37;;;;;;;2.10;1.90;;;;;;;;;;5070921;28;20184;-59
2023/09/04 08:52:05;;;;;;;3.63;1.80;;;;;;;;;;5071120;28;20246;-59
2023/09/04 08:54:32;;;;;;;2.30;1.70;;;;;;;;;;5071851;28;20289;-58
2023/09/04 08:56:58;;;;;;;3.27;1.67;;;;;;;;;;5075024;28;20678;-59
2023/09/04 08:59:24;;;;;;;1.90;1.60;;;;;;;;;;5075125;28;20221;-58
2023/09/04 09:01:52;;;;;;;2.37;1.83;;;;;;;;;;5075126;28;20291;-58
2023/09/04 09:04:20;;;;;;;2.50;1.80;;;;;;;;;;5074748;28;20207;-58
2023/09/04 09:06:48;;;;;;;2.43;1.90;;;;;;;;;;5075024;28;20659;-58
2023/09/04 09:09:15;;;;;;;3.17;1.90;;;;;;;;;;5074842;28;20658;-58
2023/09/04 09:11:41;;;;;;;3.00;2.00;;;;;;;;;;5074933;28;20193;-58
2023/09/04 09:14:07;;;;;;;2.53;1.90;;;;;;;;;;5074839;28;20201;-58
2023/09/04 09:16:33;;;;;;;1.90;1.70;;;;;;;;;;5074560;28;20204;-58
2023/09/04 09:19:02;;;;;;;3.23;1.80;;;;;;;;;;5074657;28;20196;-58
2023/09/04 09:21:29;;;;;;;4.10;1.87;;;;;;;;;;5074496;28;20212;-59
2023/09/04 09:24:10;;;;;;;2.03;1.77;;;;;;;;;;5074731;28;20223;-58
2023/09/04 09:26:37;;;;;;;2.60;1.80;;;;;;;;;;5074495;28;20231;-59
2023/09/04 09:29:03;;;;;;;2.10;1.80;;;;;;;;;;5074398;28;20301;-58
2023/09/04 09:31:29;;;;;;;2.30;1.80;;;;;;;;;;5074189;28;20667;-57
2023/09/04 09:33:56;;;;;;;1.87;1.77;;;;;;;;;;5074653;28;20539;-58
2023/09/04 09:36:22;;;;;;;1.87;1.43;;;;;;;;;;5074303;28;20205;-58
2023/09/04 09:38:48;;;;;;;3.80;1.80;;;;;;;;;;5074098;28;20329;-58
2023/09/04 09:41:16;;;;;;;3.27;1.83;;;;;;;;;;5074161;28;20686;-58
2023/09/04 09:43:42;;;;;;;1.87;1.60;;;;;;;;;;5074166;28;20698;-58
2023/09/04 09:46:08;;;;;;;1.70;1.33;;;;;;;;;;5074150;28;20242;-59
2023/09/04 09:48:36;;;;;;;2.17;1.50;;;;;;;;;;5074217;28;20264;-59
2023/09/04 09:51:02;;;;;;;1.70;1.53;;;;;;;;;;5074117;28;20192;-59
2023/09/04 09:53:43;;;;;;;3.80;2.00;;;;;;;;;;5073824;28;20591;-59
2023/09/04 09:56:09;;;;;;;1.70;1.53;;;;;;;;;;5074014;28;20195;-58
2023/09/04 09:58:37;;;;;;;2.27;1.73;;;;;;;;;;5073722;28;20195;-58
2023/09/04 10:01:03;;;;;;;2.17;1.70;;;;;;;;;;5073480;28;20813;-58
2023/09/04 10:03:29;;;;;;;3.37;1.90;;;;;;;;;;5073626;28;20199;-58
2023/09/04 10:05:55;;;;;;;2.97;1.90;;;;;;;;;;5073368;28;20200;-58
2023/09/04 10:08:22;;;;;;;2.80;1.50;;;;;;;;;;5073447;28;20202;-58
2023/09/04 10:10:49;;;;;;;2.33;1.50;;;;;;;;;;5073662;28;20297;-58
2023/09/04 10:13:16;;;;;;;1.50;1.40;;;;;;;;;;5073501;28;20203;-58
2023/09/04 10:15:47;;;;;;;3.03;1.70;;;;;;;;;;5073452;28;20201;-58
2023/09/04 10:18:15;;;;;;;2.27;1.70;;;;;;;;;;5073480;28;20214;-58
2023/09/04 10:20:41;;;;;;;4.27;1.77;;;;;;;;;;5073438;28;20234;-58
2023/09/04 10:23:08;;;;;;;2.53;1.70;;;;;;;;;;5073518;28;20193;-58
2023/09/04 10:25:37;;;;;;;1.57;1.40;;;;;;;;;;5073287;28;20225;-58
2023/09/04 10:28:04;;;;;;;1.57;1.43;;;;;;;;;;5073248;28;20252;-58
2023/09/04 10:30:31;;;;;;;3.43;1.47;;;;;;;;;;5073286;28;20193;-58
2023/09/04 10:32:59;;;;;;;2.93;1.70;;;;;;;;;;5073244;28;20201;-58
2023/09/04 10:35:26;;;;;;;2.70;1.67;;;;;;;;;;5073341;28;20688;-58
2023/09/04 10:37:53;;;;;;;2.47;1.40;;;;;;;;;;5073314;28;20231;-58
2023/09/04 10:40:19;;;;;;;2.23;1.60;;;;;;;;;;5073058;28;20307;-58
2023/09/04 10:42:45;;;;;;;4.47;1.70;;;;;;;;;;5073016;28;20690;-58
2023/09/04 10:45:12;;;;;;;1.63;1.53;;;;;;;;;;5073324;28;20295;-58
2023/09/04 10:47:43;;;;;;;3.47;1.80;;;;;;;;;;5073094;28;20199;-58
2023/09/04 10:50:25;;;;;;;1.70;1.60;;;;;;;;;;5073102;28;20249;-58
2023/09/04 10:52:51;;;;;;;2.50;1.70;;;;;;;;;;5073306;28;20258;-58
2023/09/04 10:55:17;;;;;;;3.67;1.50;;;;;;;;;;5072898;28;20198;-58
2023/09/04 10:57:56;;;;;;;2.73;1.70;;;;;;;;;;5072913;28;20288;-58
2023/09/04 11:00:29;;;;;;;1.83;1.30;;;;;;;;;;5072884;28;20303;-58
2023/09/04 11:02:55;;;;;;;1.87;1.67;;;;;;;;;;5073108;28;20204;-58
2023/09/04 11:05:24;;;;;;;2.10;1.60;;;;;;;;;;5072724;28;20671;-58
2023/09/04 11:07:50;;;;;;;3.63;1.70;;;;;;;;;;5072617;28;20369;-58
2023/09/04 11:10:36;;;;;;;1.77;1.67;;;;;;;;;;5072524;28;20710;-59
2023/09/04 11:13:02;;;;;;;3.50;1.70;;;;;;;;;;5072435;28;20544;-59
2023/09/04 11:15:28;;;;;;;2.67;1.60;;;;;;;;;;5072461;28;20198;-58
2023/09/04 11:17:54;;;;;;;2.67;1.70;;;;;;;;;;5068345;28;20201;-59
2023/09/04 11:20:25;;;;;;;1.93;1.60;;;;;;;;;;5052657;28;20230;-60
2023/09/04 11:22:51;;;;;;;4.80;2.07;;;;;;;;;;5052801;28;20214;-58
2023/09/04 11:25:17;;;;;;;3.00;1.80;;;;;;;;;;5052878;28;20193;-58
2023/09/04 11:27:43;;;;;;;2.10;1.70;;;;;;;;;;5052823;28;20216;-59
2023/09/04 11:30:09;;;;;;;1.97;1.50;;;;;;;;;;5052824;28;20203;-59
2023/09/04 11:32:37;;;;;;;3.27;1.60;;;;;;;;;;5052435;28;20207;-59
2023/09/04 11:35:03;;;;;;;1.73;1.60;;;;;;;;;;5052656;28;20203;-59
2023/09/04 11:37:33;;;;;;;2.03;1.50;;;;;;;;;;5052497;28;20232;-59
2023/09/04 11:40:00;;;;;;;2.57;1.60;;;;;;;;;;5052704;28;20252;-58
2023/09/04 11:42:29;;;;;;;1.60;1.50;;;;;;;;;;5052298;28;20279;-58
2023/09/04 11:44:55;;;;;;;2.73;2.20;;;;;;;;;;5052742;28;20320;-59
2023/09/04 11:47:22;;;;;;;1.70;1.50;;;;;;;;;;5052460;28;20568;-58
2023/09/04 11:49:49;;;;;;;2.77;1.77;;;;;;;;;;5052306;28;20194;-59
2023/09/04 11:52:18;;;;;;;1.87;1.67;;;;;;;;;;5052336;28;20203;-60
2023/09/04 11:54:46;;;;;;;3.27;1.90;;;;;;;;;;5052406;28;20206;-59
2023/09/04 11:57:12;;;;;;;2.73;1.80;;;;;;;;;;5052151;28;20211;-59
2023/09/04 11:59:39;;;;;;;3.03;1.90;;;;;;;;;;5052063;28;20686;-58
2023/09/04 12:02:05;;;;;;;2.07;1.83;;;;;;;;;;5052311;28;20203;-58
2023/09/04 12:04:32;;;;;;;2.23;1.97;;;;;;;;;;5051944;28;20743;-57
2023/09/04 12:06:59;;;;;;;3.60;1.90;;;;;;;;;;5051909;28;20608;-58
2023/09/04 12:09:25;;;;;;;7.10;2.10;;;;;;;;;;5052088;28;20198;-58
2023/09/04 12:11:53;;;;;;;3.60;1.87;;;;;;;;;;5051945;28;20732;-58
2023/09/04 12:14:19;;;;;;;2.53;1.80;;;;;;;;;;5051468;28;20232;-58
2023/09/04 12:16:46;;;;;;;2.67;1.67;;;;;;;;;;5051541;28;20183;-58
2023/09/04 12:19:12;;;;;;;1.63;1.53;;;;;;;;;;5051647;28;20725;-58
2023/09/04 12:21:38;;;;;;;2.27;1.50;;;;;;;;;;5051904;28;20242;-58
2023/09/04 12:24:11;;;;;;;2.67;1.80;;;;;;;;;;5051710;28;20199;-57
2023/09/04 12:26:37;;;;;;;2.60;1.80;;;;;;;;;;5051638;28;20236;-58
2023/09/04 12:29:04;;;;;;;2.17;1.50;;;;;;;;;;5051265;28;20278;-58
2023/09/04 12:31:31;;;;;;;5.10;1.87;;;;;;;;;;5051438;28;20695;-58
2023/09/04 12:33:57;;;;;;;3.10;1.60;;;;;;;;;;5051662;28;20203;-58
2023/09/04 12:36:23;;;;;;;4.13;1.80;;;;;;;;;;5051637;28;20206;-58
2023/09/04 12:38:49;;;;;;;3.53;1.97;;;;;;;;;;5051454;28;20236;-58
2023/09/04 12:41:16;;;;;;;2.77;1.97;;;;;;;;;;5051333;28;20245;-58
2023/09/04 12:43:42;;;;;;;2.90;1.90;;;;;;;;;;5051366;28;20246;-58
2023/09/04 12:46:11;;;;;;;1.57;1.47;;;;;;;;;;5051391;28;20641;-58
2023/09/04 12:48:37;;;;;;;2.30;1.70;;;;;;;;;;5051203;28;20208;-60
2023/09/04 12:51:03;;;;;;;2.47;2.13;;;;;;;;;;5051555;28;20234;-57
2023/09/04 12:53:29;;;;;;;4.23;1.80;;;;;;;;;;5064082;28;20192;-56
2023/09/04 12:55:55;;;;;;;2.90;2.00;;;;;;;;;;5071309;28;20202;-55
2023/09/04 12:58:21;;;;;;;4.93;2.20;;;;;;;;;;5070926;28;20217;-64
2023/09/04 13:00:47;;;;;;;2.20;1.90;;;;;;;;;;5071081;28;20296;-55
2023/09/04 13:03:14;;;;;;;3.17;2.10;;;;;;;;;;5071187;28;20243;-56
2023/09/04 13:05:40;;;;;;;2.63;1.70;;;;;;;;;;5071275;28;20208;-55
2023/09/04 13:08:07;;;;;;;2.53;2.10;;;;;;;;;;5071228;28;20247;-56
2023/09/04 13:10:33;;;;;;;2.10;1.90;;;;;;;;;;5068984;28;20195;-56
2023/09/04 13:12:59;;;;;;;2.07;1.80;;;;;;;;;;5070835;28;20248;-56
2023/09/04 13:15:25;;;;;;;2.47;1.97;;;;;;;;;;5070670;28;20681;-55
2023/09/04 13:17:52;;;;;;;2.33;1.90;;;;;;;;;;5070837;28;20206;-55
2023/09/04 13:20:19;;;;;;;3.27;1.70;;;;;;;;;;5070531;28;20223;-55
2023/09/04 13:22:45;;;;;;;1.77;1.67;;;;;;;;;;5070627;28;20261;-56
2023/09/04 13:25:12;;;;;;;4.07;1.93;;;;;;;;;;5070531;28;20195;-55
2023/09/04 13:27:38;;;;;;;2.73;1.70;;;;;;;;;;5070585;28;20214;-55
2023/09/04 13:30:05;;;;;;;4.80;2.00;;;;;;;;;;5070581;28;20197;-55
2023/09/04 13:32:31;;;;;;;2.60;1.73;;;;;;;;;;5070450;28;20195;-55
2023/09/04 13:34:57;;;;;;;3.43;1.90;;;;;;;;;;5070826;28;20209;-55
2023/09/04 13:37:25;;;;;;;2.40;1.80;;;;;;;;;;5070405;28;20198;-55
2023/09/04 13:39:51;;;;;;;3.13;2.00;;;;;;;;;;5070728;28;20224;-56
2023/09/04 13:42:20;;;;;;;3.40;2.07;;;;;;;;;;5060971;28;20922;-56
2023/09/04 13:44:46;;;;;;;2.33;1.90;;;;;;;;;;5056343;28;20291;-56
2023/09/04 13:47:12;;;;;;;3.00;2.10;;;;;;;;;;5072297;28;20227;-54
2023/09/04 13:49:38;;;;;;;2.40;1.60;;;;;;;;;;5072427;28;20223;-54
2023/09/04 13:52:04;;;;;;;2.67;1.93;;;;;;;;;;5072498;28;20198;-54
2023/09/04 13:54:32;;;;;;;4.13;1.80;;;;;;;;;;5073843;28;20241;-54
2023/09/04 13:56:58;;;;;;;3.30;1.80;;;;;;;;;;5074021;28;20608;-55
2023/09/04 13:59:26;;;;;;;2.37;1.80;;;;;;;;;;5073990;28;20199;-55
2023/09/04 14:01:52;;;;;;;5.87;1.90;;;;;;;;;;5074119;28;20276;-55
2023/09/04 14:04:18;;;;;;;2.43;1.70;;;;;;;;;;5074000;28;20625;-55
2023/09/04 14:06:44;;;;;;;2.10;1.90;;;;;;;;;;5073540;28;20666;-55
2023/09/04 14:09:11;;;;;;;2.40;1.70;;;;;;;;;;5073962;28;20218;-55
2023/09/04 14:11:38;;;;;;;1.70;1.60;;;;;;;;;;5073695;28;20203;-55
2023/09/04 14:14:05;;;;;;;3.77;2.20;;;;;;;;;;5073642;28;20230;-54
2023/09/04 14:16:31;;;;;;;2.87;2.37;;;;;;;;;;5073501;28;20207;-55
2023/09/04 14:18:57;;;;;;;3.40;1.90;;;;;;;;;;5073586;28;20198;-54
2023/09/04 14:21:23;;;;;;;2.37;1.80;;;;;;;;;;5073514;28;20229;-55
2023/09/04 14:23:50;;;;;;;3.07;1.87;;;;;;;;;;5073292;28;20209;-55
2023/09/04 14:26:16;;;;;;;2.83;2.10;;;;;;;;;;5073444;28;20206;-55
2023/09/04 14:28:44;;;;;;;2.73;1.90;;;;;;;;;;5073251;28;20256;-55
2023/09/04 14:31:14;;;;;;;4.73;1.90;;;;;;;;;;5073707;28;20285;-55
2023/09/04 14:33:40;;;;;;;2.10;1.90;;;;;;;;;;5073753;28;20206;-54
2023/09/04 14:36:06;;;;;;;3.53;2.00;;;;;;;;;;5073304;28;20201;-54
2023/09/04 14:38:35;;;;;;;3.17;1.90;;;;;;;;;;5072949;28;20360;-55
2023/09/04 14:41:08;;;;;;;4.43;2.00;;;;;;;;;;5073131;28;20255;-55